Dickinson Theodore Roosevelt Regional Airport Dickinson US
ICAO: KDIK
IATA: DIK
Category: Medium
Scheduled Services: No

Elevation: 2592 ft
TransAlt. 18000 ft.

Airport Communications:
MINNEAPOLIS CNTR:124.25
GRAND FORKS RDO:122.2
CTAF/UNICOM:123

KDIK Zoom In..

If Map Doesn't Load, Click Here

Runways:

(A) RW 07 length 4699 ft width 75 ft
---- / hdg 70

(B) RW 14 length 6399 ft width 100 ft
---- / hdg 140

(C) RW 25 length 4699 ft width 75 ft
---- / hdg 250

(D) RW 32 length 6399 ft width 100 ft
ILS 108.30 / hdg 320

Location; KDIK
Day. 23 / Time. 21.22 Zulu
* Altimeter: 29.89
* Temperature: 06° c. 42.8°f.
* Wind from: VRB° Speed 06 kn.
Dewpoint: 05° c.
Visibility: 1/4 Statute Miles.
Conditions: Fog.

KDIK 232122Z AUTO VRB06KT 1/4SM FG VV002 06/05 A2989 RMK AO2 T00560050


Wind From VRB°
Speed 06 kn.

 
 
jpsmedia.com for Web Design worldairports.se 2018   terms of use